createdAt,value
2023-09-12T00:02:57.443Z,75.10
2023-09-12T00:06:05.226Z,75.20
2023-09-12T00:09:17.399Z,75.30
2023-09-12T00:12:27.847Z,75.40
2023-09-12T00:15:35.229Z,75.60
2023-09-12T00:18:41.782Z,75.50
2023-09-12T00:21:49.371Z,75.60
2023-09-12T00:24:57.702Z,75.70
2023-09-12T00:28:05.183Z,75.80
2023-09-12T00:31:10.665Z,75.80
2023-09-12T00:34:20.618Z,75.80
2023-09-12T00:37:26.069Z,75.80
2023-09-12T00:40:36.933Z,75.80
2023-09-12T00:43:42.398Z,75.90
2023-09-12T00:46:51.465Z,76.00
2023-09-12T00:49:57.336Z,76.10
2023-09-12T00:53:06.425Z,76.20
2023-09-12T00:56:14.897Z,76.10
2023-09-12T00:59:22.734Z,76.30
2023-09-12T01:02:28.826Z,76.30
2023-09-12T01:05:36.509Z,76.30
2023-09-12T01:08:42.055Z,76.30
2023-09-12T01:11:54.110Z,76.40
2023-09-12T01:14:59.482Z,76.60
2023-09-12T01:18:07.612Z,76.50
2023-09-12T01:21:42.151Z,76.70
2023-09-12T01:25:17.812Z,77.00
2023-09-12T01:28:29.105Z,76.90
2023-09-12T01:31:38.429Z,76.80
2023-09-12T01:34:43.833Z,76.70
2023-09-12T01:37:51.169Z,76.80
2023-09-12T01:40:58.021Z,77.50
2023-09-12T01:44:09.996Z,76.90
2023-09-12T01:47:16.815Z,77.20
2023-09-12T01:50:25.459Z,77.20
2023-09-12T01:53:31.673Z,77.30
2023-09-12T01:56:39.524Z,77.30
2023-09-12T01:59:48.432Z,77.40
2023-09-12T02:02:55.915Z,78.20
2023-09-12T02:06:01.308Z,77.50
2023-09-12T02:09:08.892Z,77.60
2023-09-12T02:12:14.357Z,77.60
2023-09-12T02:15:24.389Z,77.60
2023-09-12T02:18:29.958Z,77.80
2023-09-12T02:21:37.313Z,77.70
2023-09-12T02:24:42.874Z,77.80
2023-09-12T02:27:50.458Z,77.80
2023-09-12T02:30:58.527Z,77.90
2023-09-12T02:34:06.298Z,77.90
2023-09-12T02:37:11.684Z,77.90
2023-09-12T02:40:19.610Z,78.00
2023-09-12T02:43:24.990Z,78.00
2023-09-12T02:46:35.241Z,78.10
2023-09-12T02:49:40.768Z,78.20
2023-09-12T02:52:48.389Z,78.10
2023-09-12T02:55:55.772Z,78.10
2023-09-12T02:59:03.476Z,78.30
2023-09-12T03:02:11.684Z,78.20
2023-09-12T03:05:19.113Z,78.30
2023-09-12T03:08:24.498Z,78.30
2023-09-12T03:11:32.039Z,78.40
2023-09-12T03:14:37.432Z,78.30
2023-09-12T03:17:47.329Z,78.40
2023-09-12T03:20:52.822Z,78.50
2023-09-12T03:24:00.225Z,78.40
2023-09-12T03:27:05.570Z,78.50
2023-09-12T03:30:15.217Z,78.50
2023-09-12T03:33:23.504Z,78.60
2023-09-12T03:36:30.959Z,78.70
2023-09-12T03:39:36.472Z,78.70
2023-09-12T03:42:44.057Z,78.70
2023-09-12T03:45:50.291Z,78.80
2023-09-12T03:49:00.534Z,78.90
2023-09-12T03:52:06.207Z,79.00
2023-09-12T03:55:14.617Z,79.00
2023-09-12T03:58:20.400Z,79.00
2023-09-12T04:01:27.764Z,79.00
2023-09-12T04:04:35.995Z,79.10
2023-09-12T04:07:43.641Z,79.20
2023-09-12T04:10:49.135Z,79.20
2023-09-12T04:13:56.470Z,79.20
2023-09-12T04:17:01.945Z,79.20
2023-09-12T04:20:15.372Z,79.20
2023-09-12T04:23:21.364Z,79.50
2023-09-12T04:26:29.435Z,79.30
2023-09-12T04:29:36.830Z,79.40
2023-09-12T04:32:45.187Z,79.50
2023-09-12T04:35:53.624Z,79.50
2023-09-12T04:39:01.738Z,79.70
2023-09-12T04:42:08.322Z,79.60
2023-09-12T04:45:15.930Z,79.70
2023-09-12T04:48:21.372Z,79.80
2023-09-12T04:51:31.528Z,79.80
2023-09-12T04:54:38.067Z,80.00
2023-09-12T04:57:45.472Z,79.90
2023-09-12T05:00:50.843Z,80.00
2023-09-12T05:03:58.381Z,80.10
2023-09-12T05:07:06.633Z,80.00
2023-09-12T05:10:14.032Z,80.20
2023-09-12T05:13:19.568Z,80.10
2023-09-12T05:16:26.980Z,80.10
2023-09-12T05:19:34.907Z,80.20
2023-09-12T05:22:44.833Z,80.30
2023-09-12T05:25:50.309Z,80.30
2023-09-12T05:28:58.089Z,80.30
2023-09-12T05:32:04.935Z,80.30
2023-09-12T05:35:21.388Z,80.30
2023-09-12T05:38:31.477Z,80.40
2023-09-12T05:41:39.921Z,80.40
2023-09-12T05:44:47.800Z,80.50
2023-09-12T05:47:55.241Z,80.50
2023-09-12T05:51:00.628Z,80.60
2023-09-12T05:54:11.106Z,80.60
2023-09-12T05:57:16.729Z,81.30
2023-09-12T06:00:24.329Z,80.60
2023-09-12T06:03:30.341Z,80.70
2023-09-12T06:06:37.973Z,80.70
2023-09-12T06:09:46.005Z,80.80
2023-09-12T06:12:53.688Z,80.90
2023-09-12T06:15:58.999Z,80.90
2023-09-12T06:19:06.374Z,80.90
2023-09-12T06:22:11.711Z,80.90
2023-09-12T06:25:21.750Z,80.90
2023-09-12T06:28:31.342Z,80.90
2023-09-12T06:31:38.917Z,80.90
2023-09-12T06:34:44.196Z,80.90
2023-09-12T06:37:51.490Z,80.90
2023-09-12T06:40:59.736Z,80.90
2023-09-12T06:44:08.348Z,81.00
2023-09-12T06:47:14.652Z,80.90
2023-09-12T06:50:22.289Z,80.90
2023-09-12T06:53:27.614Z,80.90
2023-09-12T06:56:39.143Z,81.00
2023-09-12T06:59:45.355Z,81.00
2023-09-12T07:02:53.056Z,80.80
2023-09-12T07:05:58.642Z,80.90
2023-09-12T07:09:06.375Z,80.90
2023-09-12T07:12:14.463Z,80.90
2023-09-12T07:15:22.164Z,81.00
2023-09-12T07:18:27.524Z,81.00
2023-09-12T07:21:35.996Z,81.00
2023-09-12T07:24:41.437Z,81.00
2023-09-12T07:27:51.378Z,81.00
2023-09-12T07:30:57.707Z,81.10
2023-09-12T07:34:07.554Z,81.10
2023-09-12T07:37:14.287Z,81.10
2023-09-12T07:40:21.625Z,81.00
2023-09-12T07:43:29.485Z,80.90
2023-09-12T07:46:36.878Z,81.10
2023-09-12T07:49:42.222Z,81.00
2023-09-12T07:52:49.599Z,81.00
2023-09-12T07:55:56.133Z,81.00
2023-09-12T07:59:06.364Z,81.10
2023-09-12T08:02:14.037Z,81.20
2023-09-12T08:05:21.508Z,81.10
2023-09-12T08:08:26.997Z,81.10
2023-09-12T08:11:34.317Z,81.20
2023-09-12T08:14:42.598Z,81.20
2023-09-12T08:17:53.248Z,81.30
2023-09-12T08:20:58.899Z,81.20
2023-09-12T08:24:06.502Z,81.20
2023-09-12T08:27:13.566Z,81.10
2023-09-12T08:30:23.685Z,81.10
2023-09-12T08:33:29.144Z,81.10
2023-09-12T08:36:37.453Z,81.10
2023-09-12T08:39:47.473Z,81.10
2023-09-12T08:42:58.313Z,81.20
2023-09-12T08:46:06.285Z,81.10
2023-09-12T08:49:14.850Z,81.10
2023-09-12T08:52:20.311Z,81.00
2023-09-12T08:55:27.585Z,81.00
2023-09-12T08:58:32.930Z,81.10
2023-09-12T09:01:43.444Z,81.10
2023-09-12T09:04:52.866Z,81.00
2023-09-12T09:08:01.141Z,81.00
2023-09-12T09:11:07.680Z,80.80
2023-09-12T09:14:15.172Z,80.90
2023-09-12T09:17:34.661Z,80.80
2023-09-12T09:20:43.095Z,80.80
2023-09-12T09:23:49.234Z,80.70
2023-09-12T09:27:01.616Z,81.30
2023-09-12T09:30:07.577Z,80.70
2023-09-12T09:33:19.849Z,80.60
2023-09-12T09:36:25.353Z,80.50
2023-09-12T09:39:32.798Z,80.50
2023-09-12T09:42:38.219Z,80.30
2023-09-12T09:45:49.824Z,80.30
2023-09-12T09:48:58.974Z,80.40
2023-09-12T09:52:08.738Z,80.60
2023-09-12T09:55:17.643Z,80.60
2023-09-12T09:58:28.005Z,80.60
2023-09-12T10:01:35.193Z,80.50
2023-09-12T10:04:48.149Z,80.40
2023-09-12T10:07:55.081Z,80.40
2023-09-12T10:11:03.256Z,80.10
2023-09-12T10:14:09.359Z,79.80
2023-09-12T10:17:19.316Z,79.70
2023-09-12T10:20:32.397Z,79.40
2023-09-12T10:23:45.864Z,79.10
2023-09-12T10:26:53.760Z,79.40
2023-09-12T10:30:01.657Z,78.40
2023-09-12T10:33:09.638Z,78.10
2023-09-12T10:36:22.382Z,78.50
2023-09-12T10:39:30.637Z,77.20
2023-09-12T10:42:39.242Z,76.90
2023-09-12T10:45:45.408Z,76.60
2023-09-12T10:48:54.376Z,76.30
2023-09-12T10:52:02.750Z,76.10
2023-09-12T10:55:11.224Z,75.70
2023-09-12T10:58:16.685Z,75.50
2023-09-12T11:01:28.008Z,75.40
2023-09-12T11:04:39.036Z,75.20
2023-09-12T11:07:50.647Z,75.00
2023-09-12T11:11:20.659Z,75.00
2023-09-12T11:14:28.319Z,74.70
2023-09-12T11:17:33.641Z,74.70
2023-09-12T11:21:04.866Z,74.50
2023-09-12T11:24:13.478Z,74.10
2023-09-12T11:27:21.088Z,74.00
2023-09-12T11:30:27.831Z,74.00
2023-09-12T11:33:36.382Z,73.60
2023-09-12T11:36:46.021Z,73.40
2023-09-12T11:39:58.967Z,73.10
2023-09-12T11:43:04.775Z,72.80
2023-09-12T11:46:12.853Z,72.60
2023-09-12T11:49:19.083Z,72.50
2023-09-12T11:52:26.423Z,72.20
2023-09-12T11:55:36.354Z,71.90
2023-09-12T11:58:43.643Z,71.40
2023-09-12T12:01:50.023Z,71.30
2023-09-12T12:04:59.648Z,71.10
2023-09-12T12:11:20.063Z,70.90
2023-09-12T12:14:26.938Z,70.80
2023-09-12T12:17:34.237Z,70.60
2023-09-12T12:20:39.700Z,70.50
2023-09-12T12:23:47.038Z,70.50
2023-09-12T12:26:55.257Z,70.50
2023-09-12T12:30:02.549Z,70.20
2023-09-12T12:33:54.856Z,70.00
2023-09-12T12:36:56.232Z,69.80
2023-09-12T12:40:04.835Z,69.80
2023-09-12T12:43:24.183Z,69.70
2023-09-12T12:46:30.089Z,69.20
2023-09-12T12:49:41.602Z,69.40
2023-09-12T12:52:46.970Z,68.90
2023-09-12T12:55:54.300Z,68.90
2023-09-12T12:59:04.434Z,68.70
2023-09-12T13:02:11.908Z,68.60
2023-09-12T13:05:25.154Z,68.50
2023-09-12T13:08:32.436Z,68.20
2023-09-12T13:11:38.381Z,68.30
2023-09-12T13:14:48.337Z,68.20
2023-09-12T13:17:53.817Z,68.00
2023-09-12T13:21:01.507Z,67.70
2023-09-12T13:24:07.322Z,67.60
2023-09-12T13:27:14.614Z,67.50
2023-09-12T13:30:22.620Z,67.30
2023-09-12T13:33:29.976Z,66.90
2023-09-12T13:36:35.417Z,67.10
2023-09-12T13:39:42.970Z,66.80
2023-09-12T13:42:48.305Z,66.80
2023-09-12T13:45:58.365Z,66.70
2023-09-12T13:49:04.926Z,66.40
2023-09-12T13:52:12.323Z,66.50
2023-09-12T13:55:23.224Z,66.30
2023-09-12T13:58:41.406Z,66.20
2023-09-12T14:01:53.288Z,66.10
2023-09-12T14:05:11.274Z,65.90
2023-09-12T14:08:18.660Z,65.90
2023-09-12T14:11:32.887Z,65.90
2023-09-12T14:14:43.011Z,65.90
2023-09-12T14:17:57.194Z,65.90
2023-09-12T14:21:02.920Z,65.80
2023-09-12T14:24:12.603Z,65.80
2023-09-12T14:27:26.503Z,65.70
2023-09-12T14:30:37.118Z,65.60
2023-09-12T14:33:46.024Z,65.60
2023-09-12T14:36:53.656Z,65.50
2023-09-12T14:39:59.368Z,65.60
2023-09-12T14:43:07.151Z,65.80
2023-09-12T14:46:12.620Z,65.70
2023-09-12T14:49:23.323Z,65.60
2023-09-12T14:52:31.101Z,65.60
2023-09-12T14:55:38.541Z,65.50
2023-09-12T14:58:43.953Z,65.60
2023-09-12T15:01:51.265Z,65.50
2023-09-12T15:04:59.655Z,65.50
2023-09-12T15:08:08.144Z,65.50
2023-09-12T15:11:13.691Z,65.50
2023-09-12T15:14:21.014Z,65.50
2023-09-12T15:17:26.250Z,65.50
2023-09-12T15:20:36.318Z,65.60
2023-09-12T15:23:41.831Z,65.60
2023-09-12T15:26:49.371Z,65.70
2023-09-12T15:29:54.626Z,65.60
2023-09-12T15:33:02.046Z,65.70
2023-09-12T15:36:10.233Z,65.70
2023-09-12T15:39:18.694Z,65.60
2023-09-12T15:42:32.785Z,65.80
2023-09-12T15:45:51.140Z,65.70
2023-09-12T15:48:57.258Z,65.70
2023-09-12T15:52:08.506Z,65.70
2023-09-12T15:55:14.883Z,65.60
2023-09-12T15:58:22.286Z,65.60
2023-09-12T16:01:27.848Z,65.50
2023-09-12T16:04:35.205Z,65.50
2023-09-12T16:07:43.707Z,65.60
2023-09-12T16:10:51.553Z,65.60
2023-09-12T16:13:56.841Z,65.80
2023-09-12T16:17:04.312Z,65.70
2023-09-12T16:20:11.005Z,65.70
2023-09-12T16:23:20.853Z,65.90
2023-09-12T16:26:26.619Z,65.90
2023-09-12T16:29:34.020Z,65.90
2023-09-12T16:32:40.979Z,66.10
2023-09-12T16:35:48.771Z,66.00
2023-09-12T16:38:57.309Z,66.00
2023-09-12T16:42:04.661Z,66.70
2023-09-12T16:45:11.951Z,66.10
2023-09-12T16:48:19.324Z,66.30
2023-09-12T16:51:25.220Z,66.30
2023-09-12T16:54:35.185Z,66.40
2023-09-12T16:57:40.415Z,66.40
2023-09-12T17:00:47.751Z,66.40
2023-09-12T17:04:02.272Z,66.50
2023-09-12T17:07:10.338Z,66.40
2023-09-12T17:10:18.251Z,66.60
2023-09-12T17:13:25.669Z,66.70
2023-09-12T17:16:30.988Z,66.70
2023-09-12T17:19:38.605Z,66.70
2023-09-12T17:22:43.979Z,66.70
2023-09-12T17:25:54.127Z,66.70
2023-09-12T17:29:00.343Z,66.90
2023-09-12T17:32:13.067Z,66.90
2023-09-12T17:35:18.666Z,66.90
2023-09-12T17:38:26.227Z,67.00
2023-09-12T17:41:34.375Z,67.20
2023-09-12T17:44:41.613Z,67.20
2023-09-12T17:47:47.196Z,67.50
2023-09-12T17:50:54.926Z,67.60
2023-09-12T17:54:00.162Z,67.70
2023-09-12T17:57:10.278Z,67.80
2023-09-12T18:00:16.040Z,67.90
2023-09-12T18:03:23.511Z,68.10
2023-09-12T18:06:30.412Z,68.10
2023-09-12T18:09:38.322Z,68.20
2023-09-12T18:12:46.196Z,68.30
2023-09-12T18:15:54.577Z,68.40
2023-09-12T18:19:00.244Z,68.50
2023-09-12T18:22:08.146Z,68.50
2023-09-12T18:25:13.578Z,68.70
2023-09-12T18:28:42.992Z,68.80
2023-09-12T18:31:48.537Z,69.00
2023-09-12T18:34:56.938Z,69.00
2023-09-12T18:38:04.374Z,69.10
2023-09-12T18:41:12.651Z,69.10
2023-09-12T18:44:22.043Z,69.20
2023-09-12T18:47:30.988Z,69.40
2023-09-12T18:50:36.214Z,69.50
2023-09-12T18:53:44.085Z,69.70
2023-09-12T18:56:49.611Z,69.90
2023-09-12T18:59:59.507Z,70.10
2023-09-12T19:03:05.072Z,70.30
2023-09-12T19:06:12.644Z,70.40
2023-09-12T19:09:17.859Z,70.50
2023-09-12T19:12:25.241Z,70.60
2023-09-12T19:15:33.135Z,70.80
2023-09-12T19:18:40.577Z,71.00
2023-09-12T19:21:46.826Z,71.10
2023-09-12T19:24:54.595Z,71.20
2023-09-12T19:28:00.105Z,71.30
2023-09-12T19:31:10.196Z,71.40
2023-09-12T19:34:15.635Z,71.60
2023-09-12T19:37:23.004Z,71.70
2023-09-12T19:40:29.558Z,71.90
2023-09-12T19:43:37.310Z,72.00
2023-09-12T19:46:45.302Z,72.10
2023-09-12T19:49:53.552Z,72.20
2023-09-12T19:52:58.859Z,72.30
2023-09-12T19:56:06.761Z,72.50
2023-09-12T19:59:12.153Z,72.60
2023-09-12T20:02:22.147Z,72.70
2023-09-12T20:05:27.430Z,72.80
2023-09-12T20:08:34.735Z,72.80
2023-09-12T20:11:41.390Z,72.80
2023-09-12T20:14:48.766Z,73.00
2023-09-12T20:18:09.497Z,73.00
2023-09-12T20:21:17.019Z,73.30
2023-09-12T20:24:22.622Z,73.30
2023-09-12T20:27:29.973Z,73.30
2023-09-12T20:30:35.296Z,73.40
2023-09-12T20:33:45.960Z,73.50
2023-09-12T20:36:52.082Z,73.70
2023-09-12T20:39:59.855Z,73.70
2023-09-12T20:43:05.200Z,73.80
2023-09-12T20:46:12.845Z,73.90
2023-09-12T20:49:20.812Z,74.00
2023-09-12T20:52:28.138Z,74.20
2023-09-12T20:55:34.322Z,74.30
2023-09-12T20:58:41.548Z,74.30
2023-09-12T21:01:46.940Z,74.50
2023-09-12T21:04:56.958Z,74.60
2023-09-12T21:08:02.517Z,74.70
2023-09-12T21:11:09.909Z,74.70
2023-09-12T21:14:15.546Z,74.90
2023-09-12T21:17:24.711Z,74.90
2023-09-12T21:20:32.716Z,75.00
2023-09-12T21:23:40.127Z,75.10
2023-09-12T21:26:45.405Z,75.10
2023-09-12T21:29:52.689Z,75.20
2023-09-12T21:32:58.042Z,75.30
2023-09-12T21:36:08.574Z,75.30
2023-09-12T21:39:13.896Z,75.50
2023-09-12T21:42:21.317Z,75.50
2023-09-12T21:45:26.604Z,75.60
2023-09-12T21:48:34.104Z,75.70
2023-09-12T21:51:42.005Z,75.80
2023-09-12T21:54:49.360Z,76.00
2023-09-12T21:57:54.724Z,76.00
2023-09-12T22:01:02.301Z,76.10
2023-09-12T22:04:08.366Z,76.10
2023-09-12T22:07:19.026Z,76.30
2023-09-12T22:10:24.678Z,76.40
2023-09-12T22:13:35.370Z,76.40
2023-09-12T22:16:42.865Z,76.50
2023-09-12T22:19:48.273Z,76.60
2023-09-12T22:22:58.167Z,76.60
2023-09-12T22:26:11.665Z,76.70
2023-09-12T22:29:18.956Z,77.40
2023-09-12T22:32:24.213Z,76.80
2023-09-12T22:35:31.542Z,76.90
2023-09-12T22:38:39.709Z,77.00
2023-09-12T22:41:47.012Z,77.10
2023-09-12T22:44:52.448Z,77.20
2023-09-12T22:47:59.753Z,77.30
2023-09-12T22:51:05.304Z,77.30
2023-09-12T22:54:15.230Z,77.30
2023-09-12T22:57:20.725Z,77.50
2023-09-12T23:00:28.347Z,77.50
2023-09-12T23:03:33.660Z,77.60
2023-09-12T23:06:41.128Z,77.80
2023-09-12T23:09:49.066Z,77.80
2023-09-12T23:12:56.978Z,78.00
2023-09-12T23:16:03.070Z,77.90
2023-09-12T23:19:10.502Z,78.00
2023-09-12T23:22:16.009Z,78.10
2023-09-12T23:25:26.056Z,78.20
2023-09-12T23:28:31.403Z,78.30
2023-09-12T23:31:38.867Z,78.20
2023-09-12T23:34:44.301Z,78.30
2023-09-12T23:37:51.607Z,78.40
2023-09-12T23:40:59.568Z,78.40
2023-09-12T23:44:07.663Z,78.60
2023-09-12T23:47:13.091Z,78.50
2023-09-12T23:50:20.529Z,78.50
2023-09-12T23:53:25.882Z,78.70
2023-09-12T23:56:37.370Z,78.70
2023-09-12T23:59:43.572Z,78.90
